sensor_id;sensor_type;location;lat;lon;timestamp;P1;durP1;ratioP1;P2;durP2;ratioP2
17365;SDS011;8800;50.118;9.900;2023-02-22T00:00:50;24.10;;;8.57;;
17365;SDS011;8800;50.118;9.900;2023-02-22T00:03:18;21.27;;;7.55;;
17365;SDS011;8800;50.118;9.900;2023-02-22T00:05:49;24.05;;;7.93;;
17365;SDS011;8800;50.118;9.900;2023-02-22T00:08:18;20.55;;;8.27;;
17365;SDS011;8800;50.118;9.900;2023-02-22T00:10:45;22.77;;;8.82;;
17365;SDS011;8800;50.118;9.900;2023-02-22T00:13:15;23.02;;;7.47;;
17365;SDS011;8800;50.118;9.900;2023-02-22T00:15:42;17.80;;;6.82;;
17365;SDS011;8800;50.118;9.900;2023-02-22T00:18:11;19.98;;;7.30;;
17365;SDS011;8800;50.118;9.900;2023-02-22T00:20:38;30.02;;;8.50;;
17365;SDS011;8800;50.118;9.900;2023-02-22T00:23:06;22.00;;;8.38;;
17365;SDS011;8800;50.118;9.900;2023-02-22T00:25:32;22.45;;;8.32;;
17365;SDS011;8800;50.118;9.900;2023-02-22T00:27:59;18.83;;;7.90;;
17365;SDS011;8800;50.118;9.900;2023-02-22T00:30:26;20.17;;;8.30;;
17365;SDS011;8800;50.118;9.900;2023-02-22T00:32:53;23.77;;;8.20;;
17365;SDS011;8800;50.118;9.900;2023-02-22T00:35:22;32.67;;;12.80;;
17365;SDS011;8800;50.118;9.900;2023-02-22T00:37:49;18.27;;;7.15;;
17365;SDS011;8800;50.118;9.900;2023-02-22T00:40:19;18.65;;;7.45;;
17365;SDS011;8800;50.118;9.900;2023-02-22T00:42:46;19.80;;;7.60;;
17365;SDS011;8800;50.118;9.900;2023-02-22T00:45:14;13.25;;;5.93;;
17365;SDS011;8800;50.118;9.900;2023-02-22T00:47:41;15.40;;;7.40;;
17365;SDS011;8800;50.118;9.900;2023-02-22T00:50:07;17.33;;;7.35;;
17365;SDS011;8800;50.118;9.900;2023-02-22T00:52:36;22.67;;;13.00;;
17365;SDS011;8800;50.118;9.900;2023-02-22T00:55:03;17.17;;;8.35;;
17365;SDS011;8800;50.118;9.900;2023-02-22T00:57:30;12.68;;;5.80;;
17365;SDS011;8800;50.118;9.900;2023-02-22T00:59:59;12.35;;;5.68;;
17365;SDS011;8800;50.118;9.900;2023-02-22T01:02:33;14.02;;;7.03;;
17365;SDS011;8800;50.118;9.900;2023-02-22T01:04:59;13.13;;;5.97;;
17365;SDS011;8800;50.118;9.900;2023-02-22T01:07:28;16.45;;;6.38;;
17365;SDS011;8800;50.118;9.900;2023-02-22T01:09:55;21.02;;;6.70;;
17365;SDS011;8800;50.118;9.900;2023-02-22T01:12:22;16.05;;;6.35;;
17365;SDS011;8800;50.118;9.900;2023-02-22T01:14:49;13.20;;;6.05;;
17365;SDS011;8800;50.118;9.900;2023-02-22T01:17:15;12.27;;;6.60;;
17365;SDS011;8800;50.118;9.900;2023-02-22T01:19:42;16.17;;;5.95;;
17365;SDS011;8800;50.118;9.900;2023-02-22T01:22:08;14.00;;;6.40;;
17365;SDS011;8800;50.118;9.900;2023-02-22T01:24:35;22.77;;;6.93;;
17365;SDS011;8800;50.118;9.900;2023-02-22T01:27:03;12.98;;;6.25;;
17365;SDS011;8800;50.118;9.900;2023-02-22T01:29:29;15.20;;;6.90;;
17365;SDS011;8800;50.118;9.900;2023-02-22T01:31:55;17.45;;;6.97;;
17365;SDS011;8800;50.118;9.900;2023-02-22T01:34:22;17.80;;;6.30;;
17365;SDS011;8800;50.118;9.900;2023-02-22T01:36:49;11.57;;;6.10;;
17365;SDS011;8800;50.118;9.900;2023-02-22T01:39:16;14.32;;;6.03;;
17365;SDS011;8800;50.118;9.900;2023-02-22T01:41:43;14.38;;;6.68;;
17365;SDS011;8800;50.118;9.900;2023-02-22T01:44:18;13.82;;;6.53;;
17365;SDS011;8800;50.118;9.900;2023-02-22T01:46:45;17.73;;;6.10;;
17365;SDS011;8800;50.118;9.900;2023-02-22T01:49:11;13.05;;;5.65;;
17365;SDS011;8800;50.118;9.900;2023-02-22T01:51:39;12.13;;;6.25;;
17365;SDS011;8800;50.118;9.900;2023-02-22T01:54:08;12.02;;;5.82;;
17365;SDS011;8800;50.118;9.900;2023-02-22T01:56:38;15.35;;;5.82;;
17365;SDS011;8800;50.118;9.900;2023-02-22T01:59:07;23.60;;;5.25;;
17365;SDS011;8800;50.118;9.900;2023-02-22T02:01:37;18.70;;;5.60;;
17365;SDS011;8800;50.118;9.900;2023-02-22T02:04:05;30.33;;;8.55;;
17365;SDS011;8800;50.118;9.900;2023-02-22T02:06:32;13.57;;;5.55;;
17365;SDS011;8800;50.118;9.900;2023-02-22T02:09:01;15.25;;;5.40;;
17365;SDS011;8800;50.118;9.900;2023-02-22T02:11:28;26.92;;;7.20;;
17365;SDS011;8800;50.118;9.900;2023-02-22T02:13:56;16.25;;;5.95;;
17365;SDS011;8800;50.118;9.900;2023-02-22T02:16:23;12.48;;;5.53;;
17365;SDS011;8800;50.118;9.900;2023-02-22T02:18:52;12.38;;;5.45;;
17365;SDS011;8800;50.118;9.900;2023-02-22T02:21:37;13.73;;;5.35;;
17365;SDS011;8800;50.118;9.900;2023-02-22T02:24:18;18.08;;;6.18;;
17365;SDS011;8800;50.118;9.900;2023-02-22T02:27:07;11.23;;;5.43;;
17365;SDS011;8800;50.118;9.900;2023-02-22T02:32:27;17.23;;;4.93;;
17365;SDS011;8800;50.118;9.900;2023-02-22T02:34:56;19.05;;;4.55;;
17365;SDS011;8800;50.118;9.900;2023-02-22T02:37:26;11.10;;;4.97;;
17365;SDS011;8800;50.118;9.900;2023-02-22T02:39:59;10.77;;;4.85;;
17365;SDS011;8800;50.118;9.900;2023-02-22T02:42:32;16.40;;;4.53;;
17365;SDS011;8800;50.118;9.900;2023-02-22T02:45:01;26.92;;;7.35;;
17365;SDS011;8800;50.118;9.900;2023-02-22T02:47:31;9.98;;;4.88;;
17365;SDS011;8800;50.118;9.900;2023-02-22T02:50:02;10.80;;;5.25;;
17365;SDS011;8800;50.118;9.900;2023-02-22T02:52:30;11.35;;;4.65;;
17365;SDS011;8800;50.118;9.900;2023-02-22T02:55:00;15.98;;;4.93;;
17365;SDS011;8800;50.118;9.900;2023-02-22T02:57:27;13.57;;;4.57;;
17365;SDS011;8800;50.118;9.900;2023-02-22T02:59:54;13.65;;;4.57;;
17365;SDS011;8800;50.118;9.900;2023-02-22T03:02:26;18.05;;;4.38;;
17365;SDS011;8800;50.118;9.900;2023-02-22T03:04:59;11.07;;;4.85;;
17365;SDS011;8800;50.118;9.900;2023-02-22T03:07:30;9.20;;;4.28;;
17365;SDS011;8800;50.118;9.900;2023-02-22T03:10:02;14.68;;;5.15;;
17365;SDS011;8800;50.118;9.900;2023-02-22T03:12:35;9.27;;;4.88;;
17365;SDS011;8800;50.118;9.900;2023-02-22T03:15:05;13.07;;;4.50;;
17365;SDS011;8800;50.118;9.900;2023-02-22T03:17:37;27.27;;;4.65;;
17365;SDS011;8800;50.118;9.900;2023-02-22T03:20:08;11.50;;;4.30;;
17365;SDS011;8800;50.118;9.900;2023-02-22T03:22:38;12.45;;;5.28;;
17365;SDS011;8800;50.118;9.900;2023-02-22T03:25:09;10.50;;;4.93;;
17365;SDS011;8800;50.118;9.900;2023-02-22T03:27:39;9.88;;;4.90;;
17365;SDS011;8800;50.118;9.900;2023-02-22T03:30:09;14.77;;;5.47;;
17365;SDS011;8800;50.118;9.900;2023-02-22T03:32:36;10.45;;;4.97;;
17365;SDS011;8800;50.118;9.900;2023-02-22T03:35:04;22.60;;;4.78;;
17365;SDS011;8800;50.118;9.900;2023-02-22T03:37:35;12.20;;;4.85;;
17365;SDS011;8800;50.118;9.900;2023-02-22T03:40:03;14.73;;;4.30;;
17365;SDS011;8800;50.118;9.900;2023-02-22T03:42:38;9.40;;;4.55;;
17365;SDS011;8800;50.118;9.900;2023-02-22T03:45:05;14.93;;;5.00;;
17365;SDS011;8800;50.118;9.900;2023-02-22T03:47:36;10.65;;;4.78;;
17365;SDS011;8800;50.118;9.900;2023-02-22T03:50:04;12.05;;;4.20;;
17365;SDS011;8800;50.118;9.900;2023-02-22T03:52:34;10.15;;;4.53;;
17365;SDS011;8800;50.118;9.900;2023-02-22T03:55:01;10.00;;;4.65;;
17365;SDS011;8800;50.118;9.900;2023-02-22T03:57:29;11.38;;;4.30;;
17365;SDS011;8800;50.118;9.900;2023-02-22T03:59:57;12.10;;;4.43;;
17365;SDS011;8800;50.118;9.900;2023-02-22T04:02:23;9.82;;;4.30;;
17365;SDS011;8800;50.118;9.900;2023-02-22T04:04:50;14.95;;;3.70;;
17365;SDS011;8800;50.118;9.900;2023-02-22T04:07:16;11.60;;;4.30;;
17365;SDS011;8800;50.118;9.900;2023-02-22T04:09:45;15.15;;;4.65;;
17365;SDS011;8800;50.118;9.900;2023-02-22T04:12:11;10.75;;;4.40;;
17365;SDS011;8800;50.118;9.900;2023-02-22T04:14:38;10.00;;;4.13;;
17365;SDS011;8800;50.118;9.900;2023-02-22T04:17:04;8.13;;;3.88;;
17365;SDS011;8800;50.118;9.900;2023-02-22T04:19:31;7.22;;;3.88;;
17365;SDS011;8800;50.118;9.900;2023-02-22T04:21:57;9.43;;;3.65;;
17365;SDS011;8800;50.118;9.900;2023-02-22T04:24:24;14.60;;;3.13;;
17365;SDS011;8800;50.118;9.900;2023-02-22T04:26:52;8.80;;;3.30;;
17365;SDS011;8800;50.118;9.900;2023-02-22T04:29:19;6.20;;;2.92;;
17365;SDS011;8800;50.118;9.900;2023-02-22T04:31:45;8.52;;;3.50;;
17365;SDS011;8800;50.118;9.900;2023-02-22T04:34:12;9.13;;;3.35;;
17365;SDS011;8800;50.118;9.900;2023-02-22T04:36:39;10.88;;;2.83;;
17365;SDS011;8800;50.118;9.900;2023-02-22T04:39:06;11.18;;;3.25;;
17365;SDS011;8800;50.118;9.900;2023-02-22T04:41:32;8.48;;;3.72;;
17365;SDS011;8800;50.118;9.900;2023-02-22T04:44:01;6.85;;;3.40;;
17365;SDS011;8800;50.118;9.900;2023-02-22T04:46:27;14.23;;;3.60;;
17365;SDS011;8800;50.118;9.900;2023-02-22T04:48:54;5.93;;;3.00;;
17365;SDS011;8800;50.118;9.900;2023-02-22T04:51:21;6.35;;;3.38;;
17365;SDS011;8800;50.118;9.900;2023-02-22T04:53:48;5.78;;;3.13;;
17365;SDS011;8800;50.118;9.900;2023-02-22T04:56:15;6.47;;;3.10;;
17365;SDS011;8800;50.118;9.900;2023-02-22T04:58:42;7.88;;;3.28;;
17365;SDS011;8800;50.118;9.900;2023-02-22T05:01:10;8.60;;;2.90;;
17365;SDS011;8800;50.118;9.900;2023-02-22T05:03:36;12.35;;;2.63;;
17365;SDS011;8800;50.118;9.900;2023-02-22T05:06:03;9.52;;;3.25;;
17365;SDS011;8800;50.118;9.900;2023-02-22T05:08:29;5.90;;;2.70;;
17365;SDS011;8800;50.118;9.900;2023-02-22T05:10:56;5.13;;;2.90;;
17365;SDS011;8800;50.118;9.900;2023-02-22T05:13:22;10.18;;;3.00;;
17365;SDS011;8800;50.118;9.900;2023-02-22T05:15:49;8.25;;;2.78;;
17365;SDS011;8800;50.118;9.900;2023-02-22T05:18:16;10.07;;;2.70;;
17365;SDS011;8800;50.118;9.900;2023-02-22T05:20:43;7.20;;;3.13;;
17365;SDS011;8800;50.118;9.900;2023-02-22T05:23:09;10.88;;;2.90;;
17365;SDS011;8800;50.118;9.900;2023-02-22T05:25:36;11.30;;;3.17;;
17365;SDS011;8800;50.118;9.900;2023-02-22T05:28:03;8.65;;;3.10;;
17365;SDS011;8800;50.118;9.900;2023-02-22T05:30:31;8.55;;;3.08;;
17365;SDS011;8800;50.118;9.900;2023-02-22T05:32:57;6.00;;;2.45;;
17365;SDS011;8800;50.118;9.900;2023-02-22T05:35:26;13.13;;;4.30;;
17365;SDS011;8800;50.118;9.900;2023-02-22T05:37:53;10.82;;;3.08;;
17365;SDS011;8800;50.118;9.900;2023-02-22T05:40:21;13.43;;;3.08;;
17365;SDS011;8800;50.118;9.900;2023-02-22T05:42:48;6.85;;;3.08;;
17365;SDS011;8800;50.118;9.900;2023-02-22T05:45:15;7.38;;;2.60;;
17365;SDS011;8800;50.118;9.900;2023-02-22T05:47:42;8.75;;;3.13;;
17365;SDS011;8800;50.118;9.900;2023-02-22T05:50:09;8.15;;;2.90;;
17365;SDS011;8800;50.118;9.900;2023-02-22T05:52:37;5.68;;;2.83;;
17365;SDS011;8800;50.118;9.900;2023-02-22T05:55:03;8.52;;;3.35;;
17365;SDS011;8800;50.118;9.900;2023-02-22T05:57:30;8.30;;;2.47;;
17365;SDS011;8800;50.118;9.900;2023-02-22T05:59:57;7.80;;;2.80;;
17365;SDS011;8800;50.118;9.900;2023-02-22T06:02:23;5.80;;;2.90;;
17365;SDS011;8800;50.118;9.900;2023-02-22T06:04:50;13.93;;;2.97;;
17365;SDS011;8800;50.118;9.900;2023-02-22T06:07:17;7.13;;;3.08;;
17365;SDS011;8800;50.118;9.900;2023-02-22T06:09:45;7.05;;;2.97;;
17365;SDS011;8800;50.118;9.900;2023-02-22T06:12:12;5.47;;;2.67;;
17365;SDS011;8800;50.118;9.900;2023-02-22T06:14:38;6.18;;;2.90;;
17365;SDS011;8800;50.118;9.900;2023-02-22T06:17:10;4.72;;;2.50;;
17365;SDS011;8800;50.118;9.900;2023-02-22T06:19:37;5.15;;;2.85;;
17365;SDS011;8800;50.118;9.900;2023-02-22T06:22:04;6.20;;;2.58;;
17365;SDS011;8800;50.118;9.900;2023-02-22T06:24:30;8.52;;;2.80;;
17365;SDS011;8800;50.118;9.900;2023-02-22T06:26:59;8.10;;;2.83;;
17365;SDS011;8800;50.118;9.900;2023-02-22T06:29:26;8.82;;;2.58;;
17365;SDS011;8800;50.118;9.900;2023-02-22T06:31:53;8.27;;;2.78;;
17365;SDS011;8800;50.118;9.900;2023-02-22T06:34:19;7.38;;;3.05;;
17365;SDS011;8800;50.118;9.900;2023-02-22T06:36:47;5.53;;;2.63;;
17365;SDS011;8800;50.118;9.900;2023-02-22T06:39:14;6.38;;;3.33;;
17365;SDS011;8800;50.118;9.900;2023-02-22T06:41:41;13.45;;;3.10;;
17365;SDS011;8800;50.118;9.900;2023-02-22T06:44:09;7.68;;;2.88;;
17365;SDS011;8800;50.118;9.900;2023-02-22T06:46:35;7.38;;;3.50;;
17365;SDS011;8800;50.118;9.900;2023-02-22T06:49:02;9.82;;;3.67;;
17365;SDS011;8800;50.118;9.900;2023-02-22T06:51:29;8.60;;;3.08;;
17365;SDS011;8800;50.118;9.900;2023-02-22T06:53:55;10.18;;;3.20;;
17365;SDS011;8800;50.118;9.900;2023-02-22T06:56:22;12.98;;;3.03;;
17365;SDS011;8800;50.118;9.900;2023-02-22T06:58:48;6.30;;;3.17;;
17365;SDS011;8800;50.118;9.900;2023-02-22T07:01:16;8.75;;;3.05;;
17365;SDS011;8800;50.118;9.900;2023-02-22T07:03:43;8.02;;;2.88;;
17365;SDS011;8800;50.118;9.900;2023-02-22T07:06:09;9.25;;;3.35;;
17365;SDS011;8800;50.118;9.900;2023-02-22T07:08:35;10.18;;;2.95;;
17365;SDS011;8800;50.118;9.900;2023-02-22T07:11:02;8.30;;;3.20;;
17365;SDS011;8800;50.118;9.900;2023-02-22T07:13:28;7.32;;;3.55;;
17365;SDS011;8800;50.118;9.900;2023-02-22T07:15:55;9.45;;;3.55;;
17365;SDS011;8800;50.118;9.900;2023-02-22T07:18:23;6.60;;;3.42;;
17365;SDS011;8800;50.118;9.900;2023-02-22T07:20:49;7.68;;;3.20;;
17365;SDS011;8800;50.118;9.900;2023-02-22T07:23:16;7.95;;;3.17;;
17365;SDS011;8800;50.118;9.900;2023-02-22T07:25:42;11.07;;;3.30;;
17365;SDS011;8800;50.118;9.900;2023-02-22T07:28:09;6.57;;;3.38;;
17365;SDS011;8800;50.118;9.900;2023-02-22T07:30:36;9.20;;;3.45;;
17365;SDS011;8800;50.118;9.900;2023-02-22T07:33:03;6.70;;;2.80;;
17365;SDS011;8800;50.118;9.900;2023-02-22T07:35:31;7.05;;;3.25;;
17365;SDS011;8800;50.118;9.900;2023-02-22T07:38:01;6.20;;;3.33;;
17365;SDS011;8800;50.118;9.900;2023-02-22T07:40:27;6.07;;;3.00;;
17365;SDS011;8800;50.118;9.900;2023-02-22T07:42:55;7.70;;;3.30;;
17365;SDS011;8800;50.118;9.900;2023-02-22T07:45:22;7.80;;;3.13;;
17365;SDS011;8800;50.118;9.900;2023-02-22T07:47:49;9.30;;;3.35;;
17365;SDS011;8800;50.118;9.900;2023-02-22T07:50:15;10.30;;;3.67;;
17365;SDS011;8800;50.118;9.900;2023-02-22T07:52:45;10.57;;;3.30;;
17365;SDS011;8800;50.118;9.900;2023-02-22T07:55:12;11.63;;;3.40;;
17365;SDS011;8800;50.118;9.900;2023-02-22T07:57:39;11.90;;;3.40;;
17365;SDS011;8800;50.118;9.900;2023-02-22T08:00:05;10.35;;;3.30;;
17365;SDS011;8800;50.118;9.900;2023-02-22T08:02:32;9.15;;;3.53;;
17365;SDS011;8800;50.118;9.900;2023-02-22T08:04:58;11.27;;;3.80;;
17365;SDS011;8800;50.118;9.900;2023-02-22T08:07:25;8.20;;;4.00;;
17365;SDS011;8800;50.118;9.900;2023-02-22T08:09:53;11.63;;;3.65;;
17365;SDS011;8800;50.118;9.900;2023-02-22T08:12:19;7.88;;;4.10;;
17365;SDS011;8800;50.118;9.900;2023-02-22T08:14:45;13.35;;;4.00;;
17365;SDS011;8800;50.118;9.900;2023-02-22T08:17:12;9.60;;;4.40;;
17365;SDS011;8800;50.118;9.900;2023-02-22T08:19:38;9.98;;;4.03;;
17365;SDS011;8800;50.118;9.900;2023-02-22T08:22:05;10.63;;;4.57;;
17365;SDS011;8800;50.118;9.900;2023-02-22T08:24:31;13.73;;;4.80;;
17365;SDS011;8800;50.118;9.900;2023-02-22T08:26:59;12.23;;;5.53;;
17365;SDS011;8800;50.118;9.900;2023-02-22T08:29:25;9.30;;;4.45;;
17365;SDS011;8800;50.118;9.900;2023-02-22T08:31:57;9.57;;;4.40;;
17365;SDS011;8800;50.118;9.900;2023-02-22T08:34:24;10.13;;;4.95;;
17365;SDS011;8800;50.118;9.900;2023-02-22T08:36:50;11.77;;;5.03;;
17365;SDS011;8800;50.118;9.900;2023-02-22T08:39:17;10.88;;;4.53;;
17365;SDS011;8800;50.118;9.900;2023-02-22T08:41:43;11.50;;;4.53;;
17365;SDS011;8800;50.118;9.900;2023-02-22T08:44:11;10.05;;;4.93;;
17365;SDS011;8800;50.118;9.900;2023-02-22T08:46:37;10.70;;;4.95;;
17365;SDS011;8800;50.118;9.900;2023-02-22T08:49:04;11.57;;;4.78;;
17365;SDS011;8800;50.118;9.900;2023-02-22T08:51:33;9.88;;;4.72;;
17365;SDS011;8800;50.118;9.900;2023-02-22T08:53:59;12.98;;;4.82;;
17365;SDS011;8800;50.118;9.900;2023-02-22T08:56:27;10.18;;;4.90;;
17365;SDS011;8800;50.118;9.900;2023-02-22T08:58:54;12.98;;;5.40;;
17365;SDS011;8800;50.118;9.900;2023-02-22T09:01:23;13.45;;;5.00;;
17365;SDS011;8800;50.118;9.900;2023-02-22T09:03:49;10.23;;;5.13;;
17365;SDS011;8800;50.118;9.900;2023-02-22T09:06:16;11.82;;;5.25;;
17365;SDS011;8800;50.118;9.900;2023-02-22T09:08:43;11.90;;;5.85;;
17365;SDS011;8800;50.118;9.900;2023-02-22T09:11:09;8.90;;;4.30;;
17365;SDS011;8800;50.118;9.900;2023-02-22T09:13:35;10.95;;;5.57;;
17365;SDS011;8800;50.118;9.900;2023-02-22T09:16:02;10.73;;;5.25;;
17365;SDS011;8800;50.118;9.900;2023-02-22T09:18:30;9.88;;;4.75;;
17365;SDS011;8800;50.118;9.900;2023-02-22T09:20:56;9.75;;;5.30;;
17365;SDS011;8800;50.118;9.900;2023-02-22T09:23:23;11.68;;;5.47;;
17365;SDS011;8800;50.118;9.900;2023-02-22T09:25:50;10.98;;;5.35;;
17365;SDS011;8800;50.118;9.900;2023-02-22T09:28:16;11.70;;;5.80;;
17365;SDS011;8800;50.118;9.900;2023-02-22T09:30:42;11.93;;;5.45;;
17365;SDS011;8800;50.118;9.900;2023-02-22T09:33:11;11.45;;;5.82;;
17365;SDS011;8800;50.118;9.900;2023-02-22T09:35:39;13.00;;;5.97;;
17365;SDS011;8800;50.118;9.900;2023-02-22T09:38:06;10.35;;;5.30;;
17365;SDS011;8800;50.118;9.900;2023-02-22T09:40:34;13.32;;;6.20;;
17365;SDS011;8800;50.118;9.900;2023-02-22T09:43:08;11.80;;;5.93;;
17365;SDS011;8800;50.118;9.900;2023-02-22T09:45:42;9.38;;;5.25;;
17365;SDS011;8800;50.118;9.900;2023-02-22T09:48:12;10.73;;;5.65;;
17365;SDS011;8800;50.118;9.900;2023-02-22T09:50:41;12.77;;;5.65;;
17365;SDS011;8800;50.118;9.900;2023-02-22T09:53:14;10.95;;;5.68;;
17365;SDS011;8800;50.118;9.900;2023-02-22T09:55:47;11.82;;;5.38;;
17365;SDS011;8800;50.118;9.900;2023-02-22T09:58:16;10.93;;;5.30;;
17365;SDS011;8800;50.118;9.900;2023-02-22T10:00:44;12.82;;;6.13;;
17365;SDS011;8800;50.118;9.900;2023-02-22T10:03:16;11.07;;;6.07;;
17365;SDS011;8800;50.118;9.900;2023-02-22T10:05:50;11.32;;;5.70;;
17365;SDS011;8800;50.118;9.900;2023-02-22T10:08:18;11.43;;;5.55;;
17365;SDS011;8800;50.118;9.900;2023-02-22T10:10:46;13.10;;;5.78;;
17365;SDS011;8800;50.118;9.900;2023-02-22T10:13:20;13.52;;;6.18;;
17365;SDS011;8800;50.118;9.900;2023-02-22T10:15:50;11.60;;;6.28;;
17365;SDS011;8800;50.118;9.900;2023-02-22T10:21:12;11.23;;;5.97;;
17365;SDS011;8800;50.118;9.900;2023-02-22T10:23:44;10.88;;;5.90;;
17365;SDS011;8800;50.118;9.900;2023-02-22T10:26:15;11.52;;;5.88;;
17365;SDS011;8800;50.118;9.900;2023-02-22T10:28:42;12.38;;;6.20;;
17365;SDS011;8800;50.118;9.900;2023-02-22T10:31:15;20.27;;;9.60;;
17365;SDS011;8800;50.118;9.900;2023-02-22T10:33:45;14.30;;;7.45;;
17365;SDS011;8800;50.118;9.900;2023-02-22T10:36:15;12.35;;;6.18;;
17365;SDS011;8800;50.118;9.900;2023-02-22T10:38:42;11.13;;;5.90;;
17365;SDS011;8800;50.118;9.900;2023-02-22T10:41:18;12.73;;;6.30;;
17365;SDS011;8800;50.118;9.900;2023-02-22T10:43:46;9.63;;;5.55;;
17365;SDS011;8800;50.118;9.900;2023-02-22T10:46:13;9.93;;;5.70;;
17365;SDS011;8800;50.118;9.900;2023-02-22T10:48:40;10.35;;;5.53;;
17365;SDS011;8800;50.118;9.900;2023-02-22T10:51:08;8.95;;;5.63;;
17365;SDS011;8800;50.118;9.900;2023-02-22T10:53:36;9.13;;;5.07;;
17365;SDS011;8800;50.118;9.900;2023-02-22T10:58:48;9.02;;;5.97;;
17365;SDS011;8800;50.118;9.900;2023-02-22T11:01:24;9.90;;;5.50;;
17365;SDS011;8800;50.118;9.900;2023-02-22T11:03:55;11.20;;;5.43;;
17365;SDS011;8800;50.118;9.900;2023-02-22T11:06:22;8.73;;;5.32;;
17365;SDS011;8800;50.118;9.900;2023-02-22T11:08:50;10.38;;;5.45;;
17365;SDS011;8800;50.118;9.900;2023-02-22T11:11:20;8.52;;;5.35;;
17365;SDS011;8800;50.118;9.900;2023-02-22T11:13:52;9.32;;;5.50;;
17365;SDS011;8800;50.118;9.900;2023-02-22T11:16:24;9.90;;;5.47;;
17365;SDS011;8800;50.118;9.900;2023-02-22T11:18:57;10.38;;;5.32;;
17365;SDS011;8800;50.118;9.900;2023-02-22T11:21:24;9.10;;;5.40;;
17365;SDS011;8800;50.118;9.900;2023-02-22T11:23:59;9.05;;;5.45;;
17365;SDS011;8800;50.118;9.900;2023-02-22T11:26:26;9.10;;;5.20;;
17365;SDS011;8800;50.118;9.900;2023-02-22T11:28:53;7.93;;;5.18;;
17365;SDS011;8800;50.118;9.900;2023-02-22T11:31:21;10.35;;;5.82;;
17365;SDS011;8800;50.118;9.900;2023-02-22T11:33:49;8.45;;;5.20;;
17365;SDS011;8800;50.118;9.900;2023-02-22T11:36:28;8.63;;;5.07;;
17365;SDS011;8800;50.118;9.900;2023-02-22T11:38:56;9.50;;;5.57;;
17365;SDS011;8800;50.118;9.900;2023-02-22T11:41:26;9.75;;;5.55;;
17365;SDS011;8800;50.118;9.900;2023-02-22T11:43:52;9.05;;;5.40;;
17365;SDS011;8800;50.118;9.900;2023-02-22T11:46:20;8.88;;;5.35;;
17365;SDS011;8800;50.118;9.900;2023-02-22T11:48:54;9.32;;;5.50;;
17365;SDS011;8800;50.118;9.900;2023-02-22T11:51:25;10.27;;;5.45;;
17365;SDS011;8800;50.118;9.900;2023-02-22T11:54:02;9.18;;;5.53;;
17365;SDS011;8800;50.118;9.900;2023-02-22T11:56:33;10.60;;;6.03;;
17365;SDS011;8800;50.118;9.900;2023-02-22T11:59:01;9.40;;;5.38;;
17365;SDS011;8800;50.118;9.900;2023-02-22T12:01:33;8.32;;;5.65;;
17365;SDS011;8800;50.118;9.900;2023-02-22T12:04:15;10.15;;;5.80;;
17365;SDS011;8800;50.118;9.900;2023-02-22T12:06:49;9.10;;;6.05;;
17365;SDS011;8800;50.118;9.900;2023-02-22T12:09:21;8.70;;;5.53;;
17365;SDS011;8800;50.118;9.900;2023-02-22T12:11:55;9.15;;;5.60;;
17365;SDS011;8800;50.118;9.900;2023-02-22T12:14:24;9.48;;;5.45;;
17365;SDS011;8800;50.118;9.900;2023-02-22T12:19:40;8.88;;;5.47;;
17365;SDS011;8800;50.118;9.900;2023-02-22T12:22:08;9.45;;;6.13;;
17365;SDS011;8800;50.118;9.900;2023-02-22T12:24:38;9.00;;;5.47;;
17365;SDS011;8800;50.118;9.900;2023-02-22T12:27:07;8.85;;;5.53;;
17365;SDS011;8800;50.118;9.900;2023-02-22T12:29:36;10.65;;;6.03;;
17365;SDS011;8800;50.118;9.900;2023-02-22T12:32:05;8.18;;;5.25;;
17365;SDS011;8800;50.118;9.900;2023-02-22T12:34:33;9.02;;;5.63;;
17365;SDS011;8800;50.118;9.900;2023-02-22T12:37:03;7.97;;;5.43;;
17365;SDS011;8800;50.118;9.900;2023-02-22T12:39:38;8.57;;;5.60;;
17365;SDS011;8800;50.118;9.900;2023-02-22T12:42:11;9.95;;;5.80;;
17365;SDS011;8800;50.118;9.900;2023-02-22T12:44:40;9.60;;;5.50;;
17365;SDS011;8800;50.118;9.900;2023-02-22T12:47:09;7.55;;;5.20;;
17365;SDS011;8800;50.118;9.900;2023-02-22T12:49:40;7.35;;;4.95;;
17365;SDS011;8800;50.118;9.900;2023-02-22T12:52:09;8.70;;;5.60;;
17365;SDS011;8800;50.118;9.900;2023-02-22T12:54:41;8.40;;;5.13;;
17365;SDS011;8800;50.118;9.900;2023-02-22T12:57:10;8.75;;;5.25;;
17365;SDS011;8800;50.118;9.900;2023-02-22T12:59:44;7.55;;;4.68;;
17365;SDS011;8800;50.118;9.900;2023-02-22T13:02:14;6.75;;;4.47;;
17365;SDS011;8800;50.118;9.900;2023-02-22T13:04:41;9.48;;;5.03;;
17365;SDS011;8800;50.118;9.900;2023-02-22T13:07:09;9.45;;;4.78;;
17365;SDS011;8800;50.118;9.900;2023-02-22T13:09:53;8.48;;;5.03;;
17365;SDS011;8800;50.118;9.900;2023-02-22T13:12:23;7.78;;;4.60;;
17365;SDS011;8800;50.118;9.900;2023-02-22T13:14:54;6.40;;;4.53;;
17365;SDS011;8800;50.118;9.900;2023-02-22T13:17:23;6.25;;;4.78;;
17365;SDS011;8800;50.118;9.900;2023-02-22T13:19:54;6.60;;;4.93;;
17365;SDS011;8800;50.118;9.900;2023-02-22T13:22:24;6.38;;;4.18;;
17365;SDS011;8800;50.118;9.900;2023-02-22T13:24:56;9.10;;;4.45;;
17365;SDS011;8800;50.118;9.900;2023-02-22T13:27:25;8.30;;;4.07;;
17365;SDS011;8800;50.118;9.900;2023-02-22T13:29:53;5.72;;;4.47;;
17365;SDS011;8800;50.118;9.900;2023-02-22T13:32:25;9.38;;;6.63;;
17365;SDS011;8800;50.118;9.900;2023-02-22T13:37:40;7.63;;;5.30;;
17365;SDS011;8800;50.118;9.900;2023-02-22T13:45:55;7.57;;;5.05;;
17365;SDS011;8800;50.118;9.900;2023-02-22T13:48:31;7.90;;;4.60;;
17365;SDS011;8800;50.118;9.900;2023-02-22T13:51:04;9.57;;;5.43;;
17365;SDS011;8800;50.118;9.900;2023-02-22T13:53:35;6.72;;;5.28;;
17365;SDS011;8800;50.118;9.900;2023-02-22T13:56:04;8.15;;;5.47;;
17365;SDS011;8800;50.118;9.900;2023-02-22T13:58:31;9.18;;;6.20;;
17365;SDS011;8800;50.118;9.900;2023-02-22T14:00:59;7.40;;;5.25;;
17365;SDS011;8800;50.118;9.900;2023-02-22T14:03:31;9.10;;;5.20;;
17365;SDS011;8800;50.118;9.900;2023-02-22T14:06:00;6.05;;;4.65;;
17365;SDS011;8800;50.118;9.900;2023-02-22T14:08:45;7.53;;;4.65;;
17365;SDS011;8800;50.118;9.900;2023-02-22T14:14:09;8.48;;;4.97;;
17365;SDS011;8800;50.118;9.900;2023-02-22T14:16:38;6.38;;;4.70;;
17365;SDS011;8800;50.118;9.900;2023-02-22T14:19:11;5.97;;;4.47;;
17365;SDS011;8800;50.118;9.900;2023-02-22T14:21:41;7.97;;;4.80;;
17365;SDS011;8800;50.118;9.900;2023-02-22T14:24:19;6.90;;;4.32;;
17365;SDS011;8800;50.118;9.900;2023-02-22T14:26:53;6.03;;;4.20;;
17365;SDS011;8800;50.118;9.900;2023-02-22T14:29:20;9.65;;;4.90;;
17365;SDS011;8800;50.118;9.900;2023-02-22T14:32:01;7.50;;;5.18;;
17365;SDS011;8800;50.118;9.900;2023-02-22T14:34:42;6.63;;;4.82;;
17365;SDS011;8800;50.118;9.900;2023-02-22T14:37:11;8.05;;;4.80;;
17365;SDS011;8800;50.118;9.900;2023-02-22T14:39:38;8.43;;;4.57;;
17365;SDS011;8800;50.118;9.900;2023-02-22T14:42:09;7.80;;;4.78;;
17365;SDS011;8800;50.118;9.900;2023-02-22T14:44:39;7.50;;;4.78;;
17365;SDS011;8800;50.118;9.900;2023-02-22T14:47:08;7.00;;;4.75;;
17365;SDS011;8800;50.118;9.900;2023-02-22T14:49:40;7.70;;;4.63;;
17365;SDS011;8800;50.118;9.900;2023-02-22T14:52:14;8.40;;;5.55;;
17365;SDS011;8800;50.118;9.900;2023-02-22T14:54:48;7.35;;;4.90;;
17365;SDS011;8800;50.118;9.900;2023-02-22T14:57:18;7.18;;;4.80;;
17365;SDS011;8800;50.118;9.900;2023-02-22T14:59:58;8.73;;;5.25;;
17365;SDS011;8800;50.118;9.900;2023-02-22T15:02:27;8.00;;;4.88;;
17365;SDS011;8800;50.118;9.900;2023-02-22T15:05:02;7.85;;;5.63;;
17365;SDS011;8800;50.118;9.900;2023-02-22T15:07:29;8.63;;;5.00;;
17365;SDS011;8800;50.118;9.900;2023-02-22T15:10:07;6.50;;;4.63;;
17365;SDS011;8800;50.118;9.900;2023-02-22T15:12:41;8.45;;;4.85;;
17365;SDS011;8800;50.118;9.900;2023-02-22T15:15:12;7.45;;;4.95;;
17365;SDS011;8800;50.118;9.900;2023-02-22T15:17:44;9.38;;;4.85;;
17365;SDS011;8800;50.118;9.900;2023-02-22T15:20:11;9.45;;;4.63;;
17365;SDS011;8800;50.118;9.900;2023-02-22T15:22:40;7.15;;;4.60;;
17365;SDS011;8800;50.118;9.900;2023-02-22T15:25:07;8.05;;;4.57;;
17365;SDS011;8800;50.118;9.900;2023-02-22T15:27:35;5.65;;;4.25;;